Chicago, IL (60693)

1:07 AM CDT on August 22, 2014 (GMT -0500)
Wacker Place | Change Station
CLOSE
Current Station
Personal Weather Station
Location: Chicago, IL
Elevation: 584 ft
Nearby Weather Stations

Elev 584 ft 41.89 °N, 87.63 °W | Updated 1 second ago

Overcast
Overcast
66.6 °F
Feels Like 66.6 °F
N
0.0
Wind Variable Wind from WNW
Gusts 0.0 mph

Today
High -- | Low -- °F
--% Chance of Precip.
Yesterday
High -- | Low -- °F
Precip. -- in
6:05 AM 7:40 PM
Waning Crescent, 10% visible
Pressure 29.88 in
Visibility 10.0 miles
Clouds Scattered Clouds 2600 ft
Mostly Cloudy 4000 ft
Mostly Cloudy 6500 ft
Overcast 14000 ft
Dew Point 49 °F
Humidity 53%
Rainfall 0.00 in
Snow Depth Not available.
UV 0 out of 12
Pollen 5.80 out of 12
Ozone Good
PM2.5 Moderate
Flu Activity Not available.
METAR KMDW 220551Z 12007KT 10SM SCT026 BKN040 BKN065 OVC140 24/23 A2991 RMK AO2 SLP117 OCNL LTGIC DSNT NW CB DSNT NW FRQ LTGICCG DSNT E CB DSNT E T02440228 10256 20244 402830217 58014

More Conditions Fewer Conditions

Pressure 29.88 in
Visibility 10.0 miles
Clouds Scattered Clouds 2600 ft
Mostly Cloudy 4000 ft
Mostly Cloudy 6500 ft
Overcast 14000 ft
Dew Point 49 °F
Humidity 53%
Rainfall 0.00 in
Snow Depth Not available.
UV 0 out of 12
Pollen 5.80 out of 12
Ozone Good
PM2.5 Moderate
Flu Activity Not available.
METAR KMDW 220551Z 12007KT 10SM SCT026 BKN040 BKN065 OVC140 24/23 A2991 RMK AO2 SLP117 OCNL LTGIC DSNT NW CB DSNT NW FRQ LTGICCG DSNT E CB DSNT E T02440228 10256 20244 402830217 58014

More Conditions Fewer Conditions

10-Day Weather Forecast

Almanac

Astronomy

Aug. 22, 2014 Rise Set
Actual Time 6:05 AM CDT 7:40 PM CDT
Civil Twilight 5:36 AM CDT 8:09 PM CDT
Nautical Twilight 5:00 AM CDT 8:44 PM CDT
Astronomical Twilight 4:22 AM CDT 9:22 PM CDT
Moon 3:27 AM CDT 5:49 PM CDT
Length of Visible Light 14h 32m
Length of Day
13h 34m
Tomorrow will be 2m 36s shorter.
Waning Crescent, 10% of the Moon is Illuminated
Today
Waning Crescent
Aug 25
New
Sep 2
First Quarter
Sep 8
Full
Sep 15
Last Quarter

Today's Extremes

State Highs State Lows

Community

WunderPhotos

Upload Photos

1,746,131 photos uploaded!

Nearby

Air Quality

  Air Quality AQ Index Pollutant
Yesterday Moderate
PM2.5
Yesterday Good
OZONE
Current Moderate
PM2.5
Current Good
OZONE
Thursday Moderate
PM2.5
Friday Moderate
OZONE
Friday Moderate
PM2.5
Saturday Moderate
OZONE
Saturday Moderate
PM2.5
Sunday Moderate
OZONE
Sunday Moderate
PM2.5

Snow Depth

Station Depth Elevation
No new snow has been reported.

Earthquake Activity

City Distance Mag. Time & Date
No recent earthquake activity has been reported nearby.
Minimum magnitude displayed is 2.5.

Coastal Water Temperatures

Place Temperature
No Stations Reporting

Nearby Weather Stations